Alum Bank, Pennsylvania
Current Conditions -  °F | °C
As of 8:54 PM on Friday 24 Oct 2014 (Local Time) from KJST Reporting Station
Clear Clear  
Wind Chill: 42°   Ceiling: Unl
Heat Index: 47°   Visibility: 10mi
Dew Point: 35°   Wind: 10mph
Humidity: 63%   Direction: 260°W
Pressure: 29.99"   Gusts: NA
Location:  40.18°N, 78.61°W
Report Text: KJST 250054Z AUTO 26009KT 10SM CLR 08/02 A2999 RMK AO2 SLP166 T00830017
Loading
Personal Weather Stations






























Interactive Weather Map
Tropical Storm Tracking
New forecast layout! Learn more

10-Day Weather Forecast

Advertisements
Track Severe Weather on mobile